sensor_id;sensor_type;location;lat;lon;timestamp;pressure;altitude;pressure_sealevel;temperature;humidity
5609;BME280;2826;51.354;9.588;2022-12-07T00:01:25;98022.72;;;0.31;100.00
5609;BME280;2826;51.354;9.588;2022-12-07T00:03:55;98032.94;;;0.34;100.00
5609;BME280;2826;51.354;9.588;2022-12-07T00:06:26;98029.53;;;0.35;100.00
5609;BME280;2826;51.354;9.588;2022-12-07T00:08:53;98027.81;;;0.38;100.00
5609;BME280;2826;51.354;9.588;2022-12-07T00:11:21;98011.69;;;0.33;100.00
5609;BME280;2826;51.354;9.588;2022-12-07T00:13:51;98025.28;;;0.38;100.00
5609;BME280;2826;51.354;9.588;2022-12-07T00:16:20;98027.81;;;0.37;100.00
5609;BME280;2826;51.354;9.588;2022-12-07T00:18:47;98017.63;;;0.37;100.00
5609;BME280;2826;51.354;9.588;2022-12-07T00:21:17;98007.41;;;0.35;100.00
5609;BME280;2826;51.354;9.588;2022-12-07T00:23:46;98010.81;;;0.34;100.00
5609;BME280;2826;51.354;9.588;2022-12-07T00:26:15;98002.34;;;0.34;100.00
5609;BME280;2826;51.354;9.588;2022-12-07T00:28:45;97997.22;;;0.32;100.00
5609;BME280;2826;51.354;9.588;2022-12-07T00:31:13;97999.75;;;0.35;100.00
5609;BME280;2826;51.354;9.588;2022-12-07T00:33:40;98000.63;;;0.36;100.00
5609;BME280;2826;51.354;9.588;2022-12-07T00:36:08;97994.69;;;0.34;100.00
5609;BME280;2826;51.354;9.588;2022-12-07T00:38:38;97999.75;;;0.37;100.00
5609;BME280;2826;51.354;9.588;2022-12-07T00:41:11;97987.00;;;0.37;100.00
5609;BME280;2826;51.354;9.588;2022-12-07T00:43:38;97975.13;;;0.30;100.00
5609;BME280;2826;51.354;9.588;2022-12-07T00:46:06;97984.47;;;0.40;100.00
5609;BME280;2826;51.354;9.588;2022-12-07T00:48:33;97983.59;;;0.39;100.00
5609;BME280;2826;51.354;9.588;2022-12-07T00:51:00;97969.16;;;0.35;100.00
5609;BME280;2826;51.354;9.588;2022-12-07T00:53:27;97975.13;;;0.41;100.00
5609;BME280;2826;51.354;9.588;2022-12-07T00:55:55;97974.25;;;0.40;100.00
5609;BME280;2826;51.354;9.588;2022-12-07T00:58:22;97967.44;;;0.44;100.00
5609;BME280;2826;51.354;9.588;2022-12-07T01:00:49;97958.09;;;0.44;100.00
5609;BME280;2826;51.354;9.588;2022-12-07T01:03:17;97958.09;;;0.41;100.00
5609;BME280;2826;51.354;9.588;2022-12-07T01:05:51;97972.53;;;0.44;100.00
5609;BME280;2826;51.354;9.588;2022-12-07T01:08:19;97960.63;;;0.43;100.00
5609;BME280;2826;51.354;9.588;2022-12-07T01:10:47;97958.94;;;0.43;100.00
5609;BME280;2826;51.354;9.588;2022-12-07T01:13:16;97958.91;;;0.45;100.00
5609;BME280;2826;51.354;9.588;2022-12-07T01:15:43;97955.53;;;0.46;100.00
5609;BME280;2826;51.354;9.588;2022-12-07T01:18:10;97951.25;;;0.46;100.00
5609;BME280;2826;51.354;9.588;2022-12-07T01:20:37;97952.13;;;0.47;100.00
5609;BME280;2826;51.354;9.588;2022-12-07T01:23:04;97951.28;;;0.49;100.00
5609;BME280;2826;51.354;9.588;2022-12-07T01:25:31;97946.16;;;0.51;100.00
5609;BME280;2826;51.354;9.588;2022-12-07T01:27:58;97947.03;;;0.51;100.00
5609;BME280;2826;51.354;9.588;2022-12-07T01:30:26;97950.41;;;0.52;100.00
5609;BME280;2826;51.354;9.588;2022-12-07T01:32:54;97959.75;;;0.53;100.00
5609;BME280;2826;51.354;9.588;2022-12-07T01:35:21;97951.28;;;0.52;100.00
5609;BME280;2826;51.354;9.588;2022-12-07T01:37:48;97954.66;;;0.55;100.00
5609;BME280;2826;51.354;9.588;2022-12-07T01:40:15;97956.34;;;0.56;100.00
5609;BME280;2826;51.354;9.588;2022-12-07T01:42:42;97960.63;;;0.55;100.00
5609;BME280;2826;51.354;9.588;2022-12-07T01:45:43;97958.06;;;0.58;100.00
5609;BME280;2826;51.354;9.588;2022-12-07T01:48:12;97962.31;;;0.61;100.00
5609;BME280;2826;51.354;9.588;2022-12-07T01:50:42;97953.78;;;0.59;100.00
5609;BME280;2826;51.354;9.588;2022-12-07T01:53:11;97955.50;;;0.58;100.00
5609;BME280;2826;51.354;9.588;2022-12-07T01:55:42;97954.66;;;0.58;100.00
5609;BME280;2826;51.354;9.588;2022-12-07T01:58:11;97950.41;;;0.58;100.00
5609;BME280;2826;51.354;9.588;2022-12-07T02:00:39;97956.34;;;0.60;100.00
5609;BME280;2826;51.354;9.588;2022-12-07T02:03:11;97949.53;;;0.62;100.00
5609;BME280;2826;51.354;9.588;2022-12-07T02:05:41;97945.28;;;0.61;100.00
5609;BME280;2826;51.354;9.588;2022-12-07T02:08:10;97944.41;;;0.62;100.00
5609;BME280;2826;51.354;9.588;2022-12-07T02:10:38;97944.41;;;0.64;100.00
5609;BME280;2826;51.354;9.588;2022-12-07T02:13:09;97941.03;;;0.65;100.00
5609;BME280;2826;51.354;9.588;2022-12-07T02:15:51;97943.59;;;0.63;100.00
5609;BME280;2826;51.354;9.588;2022-12-07T02:18:27;97939.31;;;0.64;100.00
5609;BME280;2826;51.354;9.588;2022-12-07T02:21:05;97941.00;;;0.67;100.00
5609;BME280;2826;51.354;9.588;2022-12-07T02:23:59;97938.44;;;0.67;100.00
5609;BME280;2826;51.354;9.588;2022-12-07T02:27:24;97935.91;;;0.67;100.00
5609;BME280;2826;51.354;9.588;2022-12-07T02:29:58;97940.16;;;0.66;100.00
5609;BME280;2826;51.354;9.588;2022-12-07T02:32:36;97936.75;;;0.67;100.00
5609;BME280;2826;51.354;9.588;2022-12-07T02:35:11;97935.91;;;0.68;100.00
5609;BME280;2826;51.354;9.588;2022-12-07T02:37:42;97935.91;;;0.70;100.00
5609;BME280;2826;51.354;9.588;2022-12-07T02:40:14;97930.78;;;0.70;100.00
5609;BME280;2826;51.354;9.588;2022-12-07T02:42:47;97931.66;;;0.72;100.00
5609;BME280;2826;51.354;9.588;2022-12-07T02:45:22;97932.47;;;0.74;100.00
5609;BME280;2826;51.354;9.588;2022-12-07T02:47:55;97932.47;;;0.72;100.00
5609;BME280;2826;51.354;9.588;2022-12-07T02:50:24;97928.22;;;0.73;100.00
5609;BME280;2826;51.354;9.588;2022-12-07T02:52:51;97928.25;;;0.71;100.00
5609;BME280;2826;51.354;9.588;2022-12-07T02:55:21;97929.94;;;0.71;100.00
5609;BME280;2826;51.354;9.588;2022-12-07T02:58:02;97928.22;;;0.73;100.00
5609;BME280;2826;51.354;9.588;2022-12-07T03:00:40;97934.16;;;0.76;100.00
5609;BME280;2826;51.354;9.588;2022-12-07T03:03:11;97921.41;;;0.75;100.00
5609;BME280;2826;51.354;9.588;2022-12-07T03:05:49;97904.44;;;0.64;100.00
5609;BME280;2826;51.354;9.588;2022-12-07T03:08:27;97925.66;;;0.76;100.00
5609;BME280;2826;51.354;9.588;2022-12-07T03:10:59;97918.00;;;0.76;100.00
5609;BME280;2826;51.354;9.588;2022-12-07T03:13:30;97920.53;;;0.76;100.00
5609;BME280;2826;51.354;9.588;2022-12-07T03:16:04;97918.84;;;0.80;100.00
5609;BME280;2826;51.354;9.588;2022-12-07T03:18:37;97915.44;;;0.81;100.00
5609;BME280;2826;51.354;9.588;2022-12-07T03:21:14;97918.00;;;0.82;100.00
5609;BME280;2826;51.354;9.588;2022-12-07T03:23:44;97908.59;;;0.83;100.00
5609;BME280;2826;51.354;9.588;2022-12-07T03:26:14;97909.47;;;0.85;100.00
5609;BME280;2826;51.354;9.588;2022-12-07T03:28:48;97912.88;;;0.84;100.00
5609;BME280;2826;51.354;9.588;2022-12-07T03:31:21;97909.47;;;0.85;100.00
5609;BME280;2826;51.354;9.588;2022-12-07T03:33:57;97911.16;;;0.84;100.00
5609;BME280;2826;51.354;9.588;2022-12-07T03:36:30;97912.00;;;0.86;100.00
5609;BME280;2826;51.354;9.588;2022-12-07T03:39:07;97920.50;;;0.87;100.00
5609;BME280;2826;51.354;9.588;2022-12-07T03:41:39;97916.25;;;0.87;100.00
5609;BME280;2826;51.354;9.588;2022-12-07T03:44:06;97923.03;;;0.93;100.00
5609;BME280;2826;51.354;9.588;2022-12-07T03:46:42;97926.47;;;0.92;100.00
5609;BME280;2826;51.354;9.588;2022-12-07T03:49:16;97909.41;;;0.91;100.00
5609;BME280;2826;51.354;9.588;2022-12-07T03:51:51;97912.78;;;0.98;100.00
5609;BME280;2826;51.354;9.588;2022-12-07T03:54:25;97912.78;;;0.98;100.00
5609;BME280;2826;51.354;9.588;2022-12-07T03:56:55;97907.69;;;0.99;100.00
5609;BME280;2826;51.354;9.588;2022-12-07T03:59:23;97910.25;;;0.98;100.00
5609;BME280;2826;51.354;9.588;2022-12-07T04:01:54;97905.13;;;0.98;100.00
5609;BME280;2826;51.354;9.588;2022-12-07T04:04:21;97897.47;;;0.98;100.00
5609;BME280;2826;51.354;9.588;2022-12-07T04:06:48;97901.72;;;1.00;100.00
5609;BME280;2826;51.354;9.588;2022-12-07T04:09:15;97906.81;;;1.00;100.00
5609;BME280;2826;51.354;9.588;2022-12-07T04:11:42;97900.03;;;1.01;100.00
5609;BME280;2826;51.354;9.588;2022-12-07T04:14:09;97905.13;;;1.01;100.00
5609;BME280;2826;51.354;9.588;2022-12-07T04:16:45;97896.59;;;1.00;100.00
5609;BME280;2826;51.354;9.588;2022-12-07T04:19:14;97905.94;;;1.06;100.00
5609;BME280;2826;51.354;9.588;2022-12-07T04:21:41;97907.66;;;1.06;100.00
5609;BME280;2826;51.354;9.588;2022-12-07T04:24:07;97900.84;;;1.06;100.00
5609;BME280;2826;51.354;9.588;2022-12-07T04:26:34;97883.88;;;0.96;100.00
5609;BME280;2826;51.354;9.588;2022-12-07T04:29:01;97902.50;;;1.12;100.00
5609;BME280;2826;51.354;9.588;2022-12-07T04:31:28;97872.81;;;0.98;100.00
5609;BME280;2826;51.354;9.588;2022-12-07T04:33:55;97896.53;;;1.17;100.00
5609;BME280;2826;51.354;9.588;2022-12-07T04:36:23;97905.88;;;1.19;100.00
5609;BME280;2826;51.354;9.588;2022-12-07T04:38:52;97904.19;;;1.19;100.00
5609;BME280;2826;51.354;9.588;2022-12-07T04:41:20;97906.75;;;1.17;100.00
5609;BME280;2826;51.354;9.588;2022-12-07T04:43:53;97900.78;;;1.15;100.00
5609;BME280;2826;51.354;9.588;2022-12-07T04:46:21;97903.28;;;1.26;100.00
5609;BME280;2826;51.354;9.588;2022-12-07T04:48:48;97901.56;;;1.28;100.00
5609;BME280;2826;51.354;9.588;2022-12-07T04:51:19;97903.25;;;1.33;100.00
5609;BME280;2826;51.354;9.588;2022-12-07T04:53:47;97906.63;;;1.33;100.00
5609;BME280;2826;51.354;9.588;2022-12-07T04:56:14;97902.38;;;1.35;100.00
5609;BME280;2826;51.354;9.588;2022-12-07T04:58:42;97905.75;;;1.37;100.00
5609;BME280;2826;51.354;9.588;2022-12-07T05:01:09;97908.28;;;1.42;100.00
5609;BME280;2826;51.354;9.588;2022-12-07T05:03:36;97908.28;;;1.42;100.00
5609;BME280;2826;51.354;9.588;2022-12-07T05:06:03;97906.56;;;1.47;100.00
5609;BME280;2826;51.354;9.588;2022-12-07T05:08:31;97905.75;;;1.42;100.00
5609;BME280;2826;51.354;9.588;2022-12-07T05:10:59;97905.69;;;1.47;100.00
5609;BME280;2826;51.354;9.588;2022-12-07T05:13:26;97911.66;;;1.47;100.00
5609;BME280;2826;51.354;9.588;2022-12-07T05:16:01;97907.41;;;1.46;100.00
5609;BME280;2826;51.354;9.588;2022-12-07T05:18:28;97917.59;;;1.51;100.00
5609;BME280;2826;51.354;9.588;2022-12-07T05:20:55;97919.28;;;1.53;100.00
5609;BME280;2826;51.354;9.588;2022-12-07T05:23:23;97911.59;;;1.55;100.00
5609;BME280;2826;51.354;9.588;2022-12-07T05:25:49;97915.00;;;1.57;100.00
5609;BME280;2826;51.354;9.588;2022-12-07T05:28:17;97921.00;;;1.54;100.00
5609;BME280;2826;51.354;9.588;2022-12-07T05:30:45;97915.84;;;1.56;100.00
5609;BME280;2826;51.354;9.588;2022-12-07T05:33:12;97914.97;;;1.59;100.00
5609;BME280;2826;51.354;9.588;2022-12-07T05:35:39;97917.50;;;1.60;100.00
5609;BME280;2826;51.354;9.588;2022-12-07T05:38:06;97919.19;;;1.63;100.00
5609;BME280;2826;51.354;9.588;2022-12-07T05:40:32;97908.94;;;1.67;100.00
5609;BME280;2826;51.354;9.588;2022-12-07T05:42:59;97907.25;;;1.66;100.00
5609;BME280;2826;51.354;9.588;2022-12-07T05:45:27;97907.25;;;1.66;100.00
5609;BME280;2826;51.354;9.588;2022-12-07T05:47:54;97902.97;;;1.65;100.00
5609;BME280;2826;51.354;9.588;2022-12-07T05:50:21;97900.44;;;1.65;100.00
5609;BME280;2826;51.354;9.588;2022-12-07T05:52:59;97906.31;;;1.75;100.00
5609;BME280;2826;51.354;9.588;2022-12-07T05:55:26;97908.91;;;1.72;100.00
5609;BME280;2826;51.354;9.588;2022-12-07T05:57:53;97904.66;;;1.73;100.00
5609;BME280;2826;51.354;9.588;2022-12-07T06:00:38;97905.50;;;1.72;100.00
5609;BME280;2826;51.354;9.588;2022-12-07T06:03:05;97896.16;;;1.69;100.00
5609;BME280;2826;51.354;9.588;2022-12-07T06:05:32;97903.81;;;1.71;100.00
5609;BME280;2826;51.354;9.588;2022-12-07T06:07:59;97902.09;;;1.69;100.00
5609;BME280;2826;51.354;9.588;2022-12-07T06:10:26;97896.16;;;1.71;100.00
5609;BME280;2826;51.354;9.588;2022-12-07T06:12:53;97894.47;;;1.68;100.00
5609;BME280;2826;51.354;9.588;2022-12-07T06:15:19;97885.94;;;1.69;100.00
5609;BME280;2826;51.354;9.588;2022-12-07T06:17:47;97885.88;;;1.72;100.00
5609;BME280;2826;51.354;9.588;2022-12-07T06:20:14;97879.94;;;1.72;100.00
5609;BME280;2826;51.354;9.588;2022-12-07T06:22:40;97879.94;;;1.72;100.00
5609;BME280;2826;51.354;9.588;2022-12-07T06:25:08;97880.81;;;1.69;100.00
5609;BME280;2826;51.354;9.588;2022-12-07T06:27:35;97888.50;;;1.69;100.00
5609;BME280;2826;51.354;9.588;2022-12-07T06:30:03;97889.38;;;1.68;100.00
5609;BME280;2826;51.354;9.588;2022-12-07T06:32:31;97890.19;;;1.67;100.00
5609;BME280;2826;51.354;9.588;2022-12-07T06:35:00;97895.31;;;1.68;100.00
5609;BME280;2826;51.354;9.588;2022-12-07T06:37:27;97896.16;;;1.69;100.00
5609;BME280;2826;51.354;9.588;2022-12-07T06:39:54;97891.91;;;1.68;100.00
5609;BME280;2826;51.354;9.588;2022-12-07T06:42:21;97896.16;;;1.71;100.00
5609;BME280;2826;51.354;9.588;2022-12-07T06:44:48;97899.59;;;1.68;100.00
5609;BME280;2826;51.354;9.588;2022-12-07T06:47:15;97895.28;;;1.70;100.00
5609;BME280;2826;51.354;9.588;2022-12-07T06:49:42;97906.41;;;1.67;100.00
5609;BME280;2826;51.354;9.588;2022-12-07T06:52:10;97907.28;;;1.65;100.00
5609;BME280;2826;51.354;9.588;2022-12-07T06:54:37;97900.47;;;1.62;100.00
5609;BME280;2826;51.354;9.588;2022-12-07T06:57:03;97912.38;;;1.66;100.00
5609;BME280;2826;51.354;9.588;2022-12-07T06:59:30;97911.50;;;1.66;100.00
5609;BME280;2826;51.354;9.588;2022-12-07T07:01:57;97911.53;;;1.64;100.00
5609;BME280;2826;51.354;9.588;2022-12-07T07:04:24;97904.72;;;1.62;100.00
5609;BME280;2826;51.354;9.588;2022-12-07T07:06:51;97910.72;;;1.61;100.00
5609;BME280;2826;51.354;9.588;2022-12-07T07:09:19;97909.84;;;1.62;100.00
5609;BME280;2826;51.354;9.588;2022-12-07T07:11:45;97915.81;;;1.64;100.00
5609;BME280;2826;51.354;9.588;2022-12-07T07:14:12;97914.94;;;1.63;100.00
5609;BME280;2826;51.354;9.588;2022-12-07T07:16:44;97913.25;;;1.61;100.00
5609;BME280;2826;51.354;9.588;2022-12-07T07:19:11;97914.09;;;1.63;100.00
5609;BME280;2826;51.354;9.588;2022-12-07T07:21:37;97903.91;;;1.58;100.00
5609;BME280;2826;51.354;9.588;2022-12-07T07:24:05;97920.91;;;1.64;100.00
5609;BME280;2826;51.354;9.588;2022-12-07T07:26:33;97915.81;;;1.64;100.00
5609;BME280;2826;51.354;9.588;2022-12-07T07:29:00;97915.81;;;1.64;100.00
5609;BME280;2826;51.354;9.588;2022-12-07T07:31:27;97918.38;;;1.64;100.00
5609;BME280;2826;51.354;9.588;2022-12-07T07:33:54;97918.38;;;1.64;100.00
5609;BME280;2826;51.354;9.588;2022-12-07T07:36:21;97917.50;;;1.65;100.00
5609;BME280;2826;51.354;9.588;2022-12-07T07:38:47;97920.94;;;1.62;100.00
5609;BME280;2826;51.354;9.588;2022-12-07T07:41:14;97923.47;;;1.62;100.00
5609;BME280;2826;51.354;9.588;2022-12-07T07:43:43;97926.03;;;1.62;100.00
5609;BME280;2826;51.354;9.588;2022-12-07T07:46:10;97924.34;;;1.61;100.00
5609;BME280;2826;51.354;9.588;2022-12-07T07:48:36;97926.84;;;1.64;100.00
5609;BME280;2826;51.354;9.588;2022-12-07T07:51:05;97898.81;;;1.55;100.00
5609;BME280;2826;51.354;9.588;2022-12-07T07:53:32;97928.53;;;1.67;100.00
5609;BME280;2826;51.354;9.588;2022-12-07T07:55:59;97925.16;;;1.66;100.00
5609;BME280;2826;51.354;9.588;2022-12-07T07:58:27;97926.00;;;1.65;100.00
5609;BME280;2826;51.354;9.588;2022-12-07T08:00:56;97931.09;;;1.67;100.00
5609;BME280;2826;51.354;9.588;2022-12-07T08:03:22;97931.91;;;1.72;100.00
5609;BME280;2826;51.354;9.588;2022-12-07T08:05:49;97929.38;;;1.71;100.00
5609;BME280;2826;51.354;9.588;2022-12-07T08:08:16;97937.06;;;1.69;100.00
5609;BME280;2826;51.354;9.588;2022-12-07T08:10:43;97936.19;;;1.70;100.00
5609;BME280;2826;51.354;9.588;2022-12-07T08:13:10;97931.09;;;1.68;100.00
5609;BME280;2826;51.354;9.588;2022-12-07T08:15:38;97931.09;;;1.68;100.00
5609;BME280;2826;51.354;9.588;2022-12-07T08:18:07;97919.16;;;1.69;100.00
5609;BME280;2826;51.354;9.588;2022-12-07T08:20:35;97922.53;;;1.71;100.00
5609;BME280;2826;51.354;9.588;2022-12-07T08:23:03;97930.19;;;1.74;100.00
5609;BME280;2826;51.354;9.588;2022-12-07T08:25:30;97933.63;;;1.75;100.00
5609;BME280;2826;51.354;9.588;2022-12-07T08:27:58;97929.31;;;1.77;100.00
5609;BME280;2826;51.354;9.588;2022-12-07T08:30:26;97942.09;;;1.77;100.00
5609;BME280;2826;51.354;9.588;2022-12-07T08:32:53;97937.88;;;1.74;100.00
5609;BME280;2826;51.354;9.588;2022-12-07T08:35:21;97937.88;;;1.74;100.00
5609;BME280;2826;51.354;9.588;2022-12-07T08:37:48;97940.44;;;1.71;100.00
5609;BME280;2826;51.354;9.588;2022-12-07T08:40:15;97943.84;;;1.75;100.00
5609;BME280;2826;51.354;9.588;2022-12-07T08:42:47;97926.84;;;1.67;100.00
5609;BME280;2826;51.354;9.588;2022-12-07T08:45:16;97943.72;;;1.89;100.00
5609;BME280;2826;51.354;9.588;2022-12-07T08:47:46;97935.13;;;1.98;100.00
5609;BME280;2826;51.354;9.588;2022-12-07T08:50:15;97945.28;;;2.04;100.00
5609;BME280;2826;51.354;9.588;2022-12-07T08:52:48;97941.84;;;2.09;100.00
5609;BME280;2826;51.354;9.588;2022-12-07T08:55:16;97946.09;;;2.07;100.00
5609;BME280;2826;51.354;9.588;2022-12-07T08:57:43;97945.28;;;2.08;100.00
5609;BME280;2826;51.354;9.588;2022-12-07T09:00:11;97943.53;;;2.12;100.00
5609;BME280;2826;51.354;9.588;2022-12-07T09:02:38;97937.50;;;2.18;100.00
5609;BME280;2826;51.354;9.588;2022-12-07T09:05:05;97942.63;;;2.16;100.00
5609;BME280;2826;51.354;9.588;2022-12-07T09:07:33;97942.63;;;2.18;100.00
5609;BME280;2826;51.354;9.588;2022-12-07T09:10:03;97942.56;;;2.24;100.00
5609;BME280;2826;51.354;9.588;2022-12-07T09:12:30;97942.56;;;2.22;100.00
5609;BME280;2826;51.354;9.588;2022-12-07T09:14:57;97945.13;;;2.22;100.00
5609;BME280;2826;51.354;9.588;2022-12-07T09:17:26;97945.97;;;2.26;100.00
5609;BME280;2826;51.354;9.588;2022-12-07T09:19:53;97933.19;;;2.23;100.00
5609;BME280;2826;51.354;9.588;2022-12-07T09:22:20;97946.00;;;2.21;100.00
5609;BME280;2826;51.354;9.588;2022-12-07T09:24:47;97945.13;;;2.22;100.00
5609;BME280;2826;51.354;9.588;2022-12-07T09:27:15;97948.53;;;2.23;100.00
5609;BME280;2826;51.354;9.588;2022-12-07T09:29:43;97941.69;;;2.25;100.00
5609;BME280;2826;51.354;9.588;2022-12-07T09:32:09;97945.97;;;2.25;100.00
5609;BME280;2826;51.354;9.588;2022-12-07T09:34:36;97951.13;;;2.18;100.00
5609;BME280;2826;51.354;9.588;2022-12-07T09:37:03;97951.19;;;2.12;100.00
5609;BME280;2826;51.354;9.588;2022-12-07T09:39:30;97944.41;;;2.08;100.00
5609;BME280;2826;51.354;9.588;2022-12-07T09:41:58;97945.28;;;2.07;100.00
5609;BME280;2826;51.354;9.588;2022-12-07T09:44:27;97946.97;;;2.06;100.00
5609;BME280;2826;51.354;9.588;2022-12-07T09:46:54;97945.28;;;2.05;100.00
5609;BME280;2826;51.354;9.588;2022-12-07T09:49:23;97955.50;;;2.07;100.00
5609;BME280;2826;51.354;9.588;2022-12-07T09:52:00;97948.72;;;2.01;100.00
5609;BME280;2826;51.354;9.588;2022-12-07T09:54:28;97948.75;;;1.96;100.00
5609;BME280;2826;51.354;9.588;2022-12-07T09:56:56;97941.06;;;2.00;100.00
5609;BME280;2826;51.354;9.588;2022-12-07T09:59:23;97938.50;;;2.03;100.00
5609;BME280;2826;51.354;9.588;2022-12-07T10:01:51;97932.44;;;2.10;100.00
5609;BME280;2826;51.354;9.588;2022-12-07T10:04:20;97938.41;;;2.12;100.00
5609;BME280;2826;51.354;9.588;2022-12-07T10:06:48;97937.53;;;2.15;100.00
5609;BME280;2826;51.354;9.588;2022-12-07T10:09:17;97935.78;;;2.17;100.00
5609;BME280;2826;51.354;9.588;2022-12-07T10:11:58;97940.00;;;2.24;100.00
5609;BME280;2826;51.354;9.588;2022-12-07T10:14:26;97932.28;;;2.29;100.00
5609;BME280;2826;51.354;9.588;2022-12-07T10:16:56;97936.44;;;2.38;100.00
5609;BME280;2826;51.354;9.588;2022-12-07T10:19:25;97934.78;;;2.33;100.00
5609;BME280;2826;51.354;9.588;2022-12-07T10:22:01;97940.78;;;2.32;100.00
5609;BME280;2826;51.354;9.588;2022-12-07T10:24:29;97934.78;;;2.33;100.00
5609;BME280;2826;51.354;9.588;2022-12-07T10:26:56;97933.91;;;2.36;100.00
5609;BME280;2826;51.354;9.588;2022-12-07T10:29:26;97927.88;;;2.40;100.00
5609;BME280;2826;51.354;9.588;2022-12-07T10:31:58;97896.50;;;2.24;100.00
5609;BME280;2826;51.354;9.588;2022-12-07T10:34:28;97924.44;;;2.43;100.00
5609;BME280;2826;51.354;9.588;2022-12-07T10:37:13;97933.88;;;2.41;100.00
5609;BME280;2826;51.354;9.588;2022-12-07T10:39:42;97923.63;;;2.42;100.00
5609;BME280;2826;51.354;9.588;2022-12-07T10:42:16;97920.09;;;2.53;100.00
5609;BME280;2826;51.354;9.588;2022-12-07T10:44:44;97920.03;;;2.57;100.00
5609;BME280;2826;51.354;9.588;2022-12-07T10:47:31;97908.06;;;2.59;100.00
5609;BME280;2826;51.354;9.588;2022-12-07T10:50:17;97909.75;;;2.60;100.00
5609;BME280;2826;51.354;9.588;2022-12-07T10:52:58;97908.03;;;2.63;100.00
5609;BME280;2826;51.354;9.588;2022-12-07T10:55:38;97906.31;;;2.63;100.00
5609;BME280;2826;51.354;9.588;2022-12-07T10:58:28;97904.47;;;2.76;100.00
5609;BME280;2826;51.354;9.588;2022-12-07T11:01:03;97897.56;;;2.83;100.00
5609;BME280;2826;51.354;9.588;2022-12-07T11:03:52;97907.72;;;2.87;100.00
5609;BME280;2826;51.354;9.588;2022-12-07T11:06:27;97904.28;;;2.90;100.00
5609;BME280;2826;51.354;9.588;2022-12-07T11:09:21;97905.09;;;2.94;100.00
5609;BME280;2826;51.354;9.588;2022-12-07T11:11:56;97913.72;;;2.86;100.00
5609;BME280;2826;51.354;9.588;2022-12-07T11:14:34;97900.94;;;2.82;100.00
5609;BME280;2826;51.354;9.588;2022-12-07T11:17:07;97899.34;;;2.76;100.00
5609;BME280;2826;51.354;9.588;2022-12-07T11:19:50;97904.59;;;2.65;100.00
5609;BME280;2826;51.354;9.588;2022-12-07T11:22:26;97900.47;;;2.53;100.00
5609;BME280;2826;51.354;9.588;2022-12-07T11:25:02;97900.59;;;2.42;100.00
5609;BME280;2826;51.354;9.588;2022-12-07T11:27:40;97888.75;;;2.30;100.00
5609;BME280;2826;51.354;9.588;2022-12-07T11:30:16;97893.94;;;2.26;100.00
5609;BME280;2826;51.354;9.588;2022-12-07T11:33:04;97891.34;;;2.29;100.00
5609;BME280;2826;51.354;9.588;2022-12-07T11:35:45;97884.44;;;2.35;100.00
5609;BME280;2826;51.354;9.588;2022-12-07T11:38:17;97880.03;;;2.50;100.00
5609;BME280;2826;51.354;9.588;2022-12-07T11:40:47;97872.03;;;2.75;100.00
5609;BME280;2826;51.354;9.588;2022-12-07T11:43:21;97879.28;;;3.06;100.00
5609;BME280;2826;51.354;9.588;2022-12-07T11:45:56;97882.44;;;3.27;100.00
5609;BME280;2826;51.354;9.588;2022-12-07T11:48:31;97877.19;;;3.33;100.00
5609;BME280;2826;51.354;9.588;2022-12-07T11:51:02;97878.03;;;3.37;100.00
5609;BME280;2826;51.354;9.588;2022-12-07T11:53:35;97872.84;;;3.40;100.00
5609;BME280;2826;51.354;9.588;2022-12-07T11:56:09;97862.66;;;3.35;100.00
5609;BME280;2826;51.354;9.588;2022-12-07T11:58:46;97860.97;;;3.34;100.00
5609;BME280;2826;51.354;9.588;2022-12-07T12:04:12;97868.81;;;3.25;100.00
5609;BME280;2826;51.354;9.588;2022-12-07T12:06:44;97841.75;;;3.04;100.00
5609;BME280;2826;51.354;9.588;2022-12-07T12:09:13;97863.88;;;3.11;100.00
5609;BME280;2826;51.354;9.588;2022-12-07T12:12:01;97862.31;;;3.02;100.00
5609;BME280;2826;51.354;9.588;2022-12-07T12:14:43;97863.22;;;2.98;100.00
5609;BME280;2826;51.354;9.588;2022-12-07T12:17:34;97859.81;;;2.96;100.00
5609;BME280;2826;51.354;9.588;2022-12-07T12:20:15;97864.94;;;2.94;100.00
5609;BME280;2826;51.354;9.588;2022-12-07T12:22:48;97855.59;;;2.90;100.00
5609;BME280;2826;51.354;9.588;2022-12-07T12:25:21;97832.78;;;2.74;100.00
5609;BME280;2826;51.354;9.588;2022-12-07T12:27:50;97852.25;;;2.86;100.00
5609;BME280;2826;51.354;9.588;2022-12-07T12:30:33;97852.25;;;2.86;100.00
5609;BME280;2826;51.354;9.588;2022-12-07T12:33:06;97847.13;;;2.86;100.00
5609;BME280;2826;51.354;9.588;2022-12-07T12:35:38;97843.69;;;2.87;100.00
5609;BME280;2826;51.354;9.588;2022-12-07T12:38:31;97853.94;;;2.86;100.00
5609;BME280;2826;51.354;9.588;2022-12-07T12:41:00;97842.00;;;2.86;100.00
5609;BME280;2826;51.354;9.588;2022-12-07T12:43:48;97841.19;;;2.84;100.00
5609;BME280;2826;51.354;9.588;2022-12-07T12:46:37;97833.53;;;2.81;100.00
5609;BME280;2826;51.354;9.588;2022-12-07T12:49:34;97838.66;;;2.81;100.00
5609;BME280;2826;51.354;9.588;2022-12-07T12:55:24;97828.47;;;2.78;100.00
5609;BME280;2826;51.354;9.588;2022-12-07T12:58:34;97840.31;;;2.85;100.00
5609;BME280;2826;51.354;9.588;2022-12-07T13:04:39;97830.13;;;2.81;100.00
5609;BME280;2826;51.354;9.588;2022-12-07T13:10:28;97813.22;;;2.70;100.00
5609;BME280;2826;51.354;9.588;2022-12-07T13:12:58;97824.88;;;2.88;100.00
5609;BME280;2826;51.354;9.588;2022-12-07T13:15:35;97799.56;;;2.68;100.00
5609;BME280;2826;51.354;9.588;2022-12-07T13:18:25;97821.63;;;2.80;100.00
5609;BME280;2826;51.354;9.588;2022-12-07T13:21:02;97822.50;;;2.78;100.00
5609;BME280;2826;51.354;9.588;2022-12-07T13:23:59;97830.25;;;2.73;100.00
5609;BME280;2826;51.354;9.588;2022-12-07T13:26:35;97828.59;;;2.69;100.00
5609;BME280;2826;51.354;9.588;2022-12-07T13:29:09;97832.91;;;2.65;100.00
5609;BME280;2826;51.354;9.588;2022-12-07T13:31:39;97827.94;;;2.53;100.00
5609;BME280;2826;51.354;9.588;2022-12-07T13:34:28;97832.25;;;2.51;100.00
5609;BME280;2826;51.354;9.588;2022-12-07T13:36:56;97835.72;;;2.45;100.00
5609;BME280;2826;51.354;9.588;2022-12-07T13:39:26;97828.91;;;2.44;100.00
5609;BME280;2826;51.354;9.588;2022-12-07T13:41:54;97826.41;;;2.38;100.00
5609;BME280;2826;51.354;9.588;2022-12-07T13:44:24;97821.31;;;2.34;100.00
5609;BME280;2826;51.354;9.588;2022-12-07T13:46:59;97821.31;;;2.34;100.00
5609;BME280;2826;51.354;9.588;2022-12-07T13:49:30;97818.81;;;2.31;100.00
5609;BME280;2826;51.354;9.588;2022-12-07T13:52:14;97827.31;;;2.32;100.00
5609;BME280;2826;51.354;9.588;2022-12-07T13:54:48;97830.78;;;2.28;100.00
5609;BME280;2826;51.354;9.588;2022-12-07T13:57:16;97823.97;;;2.27;100.00